Time,TemperatureF,DewpointF,PressureIn,WindDirection,WindDirectionDegrees,WindSpeedMPH,WindSpeedGustMPH,Humidity,HourlyPrecipIn,Conditions,Clouds,dailyrainin,SoftwareType,DateUTC
2013-02-17 00:02:00,21.4,2.4,23.51,ESE,106,0.0,0.0,43,0.00,,---,0.00,VWS V14.00,2013-02-17 07:02:00,
2013-02-17 00:07:00,21.2,2.2,23.51,ESE,106,0.0,0.0,43,0.00,,---,0.00,VWS V14.00,2013-02-17 07:07:00,
2013-02-17 00:12:00,21.2,2.2,23.51,ESE,106,0.0,0.0,43,0.00,,---,0.00,VWS V14.00,2013-02-17 07:12:00,
2013-02-17 00:18:00,21.2,2.2,23.51,ESE,107,0.0,0.0,43,0.00,,---,0.00,VWS V14.00,2013-02-17 07:18:00,
2013-02-17 00:23:00,21.0,2.0,23.51,ESE,106,0.0,0.0,43,0.00,,---,0.00,VWS V14.00,2013-02-17 07:23:00,
2013-02-17 00:28:00,20.8,1.9,23.51,ESE,106,0.0,0.0,43,0.00,,---,0.00,VWS V14.00,2013-02-17 07:28:00,
2013-02-17 00:33:00,20.7,1.7,23.51,ESE,106,0.0,0.0,43,0.00,,---,0.00,VWS V14.00,2013-02-17 07:33:00,
2013-02-17 00:38:00,20.5,1.5,23.51,ESE,106,0.0,0.0,43,0.00,,---,0.00,VWS V14.00,2013-02-17 07:38:00,
2013-02-17 00:43:00,20.5,1.5,23.48,ESE,107,0.0,0.0,43,0.00,,---,0.00,VWS V14.00,2013-02-17 07:43:00,
2013-02-17 00:48:00,20.3,1.4,23.48,ESE,106,0.0,0.0,43,0.00,,---,0.00,VWS V14.00,2013-02-17 07:48:00,
2013-02-17 00:53:00,20.3,1.4,23.48,ESE,107,0.0,0.0,43,0.00,,---,0.00,VWS V14.00,2013-02-17 07:53:00,
2013-02-17 00:58:00,20.1,1.2,23.48,ESE,107,0.0,0.0,43,0.00,,---,0.00,VWS V14.00,2013-02-17 07:58:00,
2013-02-17 01:03:00,19.9,1.1,23.48,ESE,107,0.0,0.0,43,0.00,,---,0.00,VWS V14.00,2013-02-17 08:03:00,
2013-02-17 01:08:00,19.8,0.9,23.48,ESE,106,0.0,0.0,43,0.00,,---,0.00,VWS V14.00,2013-02-17 08:08:00,
2013-02-17 01:13:00,19.6,0.7,23.48,ESE,106,0.0,0.0,43,0.00,,---,0.00,VWS V14.00,2013-02-17 08:13:00,
2013-02-17 01:18:00,19.4,1.1,23.48,ESE,107,0.0,0.0,44,0.00,,---,0.00,VWS V14.00,2013-02-17 08:18:00,
2013-02-17 01:23:00,19.2,0.9,23.48,ESE,106,0.0,0.0,44,0.00,,---,0.00,VWS V14.00,2013-02-17 08:23:00,
2013-02-17 01:28:00,19.0,0.7,23.48,ESE,106,0.0,0.0,44,0.00,,---,0.00,VWS V14.00,2013-02-17 08:28:00,
2013-02-17 01:33:00,19.0,0.7,23.48,ESE,106,0.0,0.0,44,0.00,,---,0.00,VWS V14.00,2013-02-17 08:33:00,
2013-02-17 01:38:00,18.9,0.6,23.48,ESE,106,0.0,0.0,44,0.00,,---,0.00,VWS V14.00,2013-02-17 08:38:00,
2013-02-17 01:43:00,18.7,0.4,23.48,ESE,106,0.0,0.0,44,0.00,,---,0.00,VWS V14.00,2013-02-17 08:43:00,
2013-02-17 01:48:00,18.7,0.4,23.48,ESE,106,0.0,0.0,44,0.00,,---,0.00,VWS V14.00,2013-02-17 08:48:00,
2013-02-17 01:54:00,18.5,0.2,23.48,ESE,106,0.0,0.0,44,0.00,,---,0.00,VWS V14.00,2013-02-17 08:54:00,
2013-02-17 01:59:00,18.1,-0.1,23.45,ESE,106,0.0,0.0,44,0.00,,---,0.00,VWS V14.00,2013-02-17 08:59:00,
2013-02-17 02:04:00,18.1,-0.1,23.45,ESE,106,0.0,0.0,44,0.00,,---,0.00,VWS V14.00,2013-02-17 09:04:00,
2013-02-17 02:09:00,18.0,-0.3,23.45,ESE,106,0.0,0.0,44,0.00,,---,0.00,VWS V14.00,2013-02-17 09:09:00,
2013-02-17 02:14:00,18.0,-0.3,23.45,ESE,106,0.0,0.0,44,0.00,,---,0.00,VWS V14.00,2013-02-17 09:14:00,
2013-02-17 02:19:00,17.8,-0.4,23.45,ESE,107,0.0,0.0,44,0.00,,---,0.00,VWS V14.00,2013-02-17 09:19:00,
2013-02-17 02:24:00,18.0,-0.3,23.45,ESE,106,0.0,0.0,44,0.00,,---,0.00,VWS V14.00,2013-02-17 09:24:00,
2013-02-17 02:29:00,18.0,-0.3,23.45,ESE,106,0.0,0.0,44,0.00,,---,0.00,VWS V14.00,2013-02-17 09:29:00,
2013-02-17 02:34:00,18.0,-0.3,23.45,ESE,106,0.0,0.0,44,0.00,,---,0.00,VWS V14.00,2013-02-17 09:34:00,
2013-02-17 02:39:00,18.1,-0.1,23.45,ESE,106,0.0,0.0,44,0.00,,---,0.00,VWS V14.00,2013-02-17 09:39:00,
2013-02-17 02:44:00,18.1,-0.1,23.45,ESE,106,0.0,0.0,44,0.00,,---,0.00,VWS V14.00,2013-02-17 09:44:00,
2013-02-17 02:49:00,18.1,-0.1,23.45,ESE,106,0.0,0.0,44,0.00,,---,0.00,VWS V14.00,2013-02-17 09:49:00,
2013-02-17 02:54:00,18.3,0.1,23.45,ESE,106,0.0,0.0,44,0.00,,---,0.00,VWS V14.00,2013-02-17 09:54:00,
2013-02-17 02:59:00,18.5,0.2,23.42,ESE,106,0.0,0.0,44,0.00,,---,0.00,VWS V14.00,2013-02-17 09:59:00,
2013-02-17 03:04:00,18.5,0.2,23.42,ESE,107,0.0,0.0,44,0.00,,---,0.00,VWS V14.00,2013-02-17 10:04:00,
2013-02-17 03:09:00,18.7,0.4,23.42,ESE,107,0.0,0.0,44,0.00,,---,0.00,VWS V14.00,2013-02-17 10:09:00,
2013-02-17 03:14:00,18.7,0.4,23.42,ESE,106,0.0,0.0,44,0.00,,---,0.00,VWS V14.00,2013-02-17 10:14:00,
2013-02-17 03:19:00,18.7,0.4,23.42,ESE,106,0.0,0.0,44,0.00,,---,0.00,VWS V14.00,2013-02-17 10:19:00,
2013-02-17 03:24:00,18.7,0.4,23.42,ESE,107,0.0,0.0,44,0.00,,---,0.00,VWS V14.00,2013-02-17 10:24:00,
2013-02-17 03:29:00,18.7,0.4,23.42,ESE,107,0.0,0.0,44,0.00,,---,0.00,VWS V14.00,2013-02-17 10:29:00,
2013-02-17 03:34:00,18.7,0.4,23.42,ESE,107,0.0,0.0,44,0.00,,---,0.00,VWS V14.00,2013-02-17 10:34:00,
2013-02-17 03:39:00,18.7,0.4,23.42,ESE,107,0.0,0.0,44,0.00,,---,0.00,VWS V14.00,2013-02-17 10:39:00,
2013-02-17 03:45:00,18.7,0.4,23.42,ESE,107,0.0,0.0,44,0.00,,---,0.00,VWS V14.00,2013-02-17 10:45:00,
2013-02-17 03:50:00,18.5,0.2,23.42,ESE,107,0.0,0.0,44,0.00,,---,0.00,VWS V14.00,2013-02-17 10:50:00,
2013-02-17 03:55:00,18.5,0.2,23.42,ESE,107,0.0,0.0,44,0.00,,---,0.00,VWS V14.00,2013-02-17 10:55:00,
2013-02-17 04:00:00,18.5,0.2,23.42,ESE,107,0.0,0.0,44,0.00,,---,0.00,VWS V14.00,2013-02-17 11:00:00,
2013-02-17 04:05:00,18.5,0.2,23.42,ESE,106,0.0,0.0,44,0.00,,---,0.00,VWS V14.00,2013-02-17 11:05:00,
2013-02-17 04:10:00,18.3,0.1,23.42,ESE,107,0.0,0.0,44,0.00,,---,0.00,VWS V14.00,2013-02-17 11:10:00,
2013-02-17 04:15:00,18.3,0.1,23.39,ESE,107,0.0,0.0,44,0.00,,---,0.00,VWS V14.00,2013-02-17 11:15:00,
2013-02-17 04:20:00,18.1,-0.1,23.39,ESE,107,0.0,0.0,44,0.00,,---,0.00,VWS V14.00,2013-02-17 11:20:00,
2013-02-17 04:25:00,17.8,-0.4,23.39,ESE,107,0.0,0.0,44,0.00,,---,0.00,VWS V14.00,2013-02-17 11:25:00,
2013-02-17 04:30:00,17.8,-0.4,23.39,ESE,107,0.0,0.0,44,0.00,,---,0.00,VWS V14.00,2013-02-17 11:30:00,
2013-02-17 04:35:00,17.6,-0.6,23.39,ESE,107,0.0,0.0,44,0.00,,---,0.00,VWS V14.00,2013-02-17 11:35:00,
2013-02-17 04:40:00,17.4,-0.8,23.39,ESE,107,0.0,0.0,44,0.00,,---,0.00,VWS V14.00,2013-02-17 11:40:00,
2013-02-17 04:45:00,17.2,-0.9,23.39,ESE,107,0.0,0.0,44,0.00,,---,0.00,VWS V14.00,2013-02-17 11:45:00,
2013-02-17 04:50:00,17.1,-0.6,23.39,ESE,107,0.0,0.0,45,0.00,,---,0.00,VWS V14.00,2013-02-17 11:50:00,
2013-02-17 04:55:00,17.1,-0.6,23.39,ESE,107,0.0,0.0,45,0.00,,---,0.00,VWS V14.00,2013-02-17 11:55:00,
2013-02-17 05:00:00,16.9,-0.8,23.39,ESE,107,0.0,0.0,45,0.00,,---,0.00,VWS V14.00,2013-02-17 12:00:00,
2013-02-17 05:05:00,16.7,-0.9,23.39,ESE,107,0.0,0.0,45,0.00,,---,0.00,VWS V14.00,2013-02-17 12:05:00,
2013-02-17 05:10:00,16.5,-1.1,23.39,ESE,107,0.0,0.0,45,0.00,,---,0.00,VWS V14.00,2013-02-17 12:10:00,
2013-02-17 05:15:00,16.5,-1.1,23.39,ESE,107,0.0,0.0,45,0.00,,---,0.00,VWS V14.00,2013-02-17 12:15:00,
2013-02-17 05:20:00,16.3,-1.3,23.39,ESE,107,0.0,0.0,45,0.00,,---,0.00,VWS V14.00,2013-02-17 12:20:00,
2013-02-17 05:26:00,16.2,-1.4,23.39,ESE,107,0.0,0.0,45,0.00,,---,0.00,VWS V14.00,2013-02-17 12:26:00,
2013-02-17 05:31:00,16.0,-1.6,23.39,ESE,107,0.0,0.0,45,0.00,,---,0.00,VWS V14.00,2013-02-17 12:31:00,
2013-02-17 05:36:00,16.0,-1.6,23.39,ESE,107,0.0,0.0,45,0.00,,---,0.00,VWS V14.00,2013-02-17 12:36:00,
2013-02-17 05:41:00,15.8,-1.8,23.39,ESE,107,0.0,0.0,45,0.00,,---,0.00,VWS V14.00,2013-02-17 12:41:00,
2013-02-17 05:46:00,15.8,-1.8,23.39,ESE,107,0.0,0.0,45,0.00,,---,0.00,VWS V14.00,2013-02-17 12:46:00,
2013-02-17 05:51:00,15.8,-1.8,23.39,ESE,107,0.0,0.0,45,0.00,,---,0.00,VWS V14.00,2013-02-17 12:51:00,
2013-02-17 05:56:00,15.6,-1.9,23.39,ESE,107,0.0,0.0,45,0.00,,---,0.00,VWS V14.00,2013-02-17 12:56:00,
2013-02-17 06:01:00,15.4,-2.1,23.39,ESE,106,0.0,0.0,45,0.00,,---,0.00,VWS V14.00,2013-02-17 13:01:00,
2013-02-17 06:06:00,15.4,-2.1,23.39,ESE,107,0.0,0.0,45,0.00,,---,0.00,VWS V14.00,2013-02-17 13:06:00,
2013-02-17 06:11:00,15.3,-2.3,23.39,ESE,107,0.0,0.0,45,0.00,,---,0.00,VWS V14.00,2013-02-17 13:11:00,
2013-02-17 06:16:00,15.3,-2.3,23.39,ESE,107,0.0,0.0,45,0.00,,---,0.00,VWS V14.00,2013-02-17 13:16:00,
2013-02-17 06:21:00,15.3,-2.3,23.39,ESE,107,0.0,0.0,45,0.00,,---,0.00,VWS V14.00,2013-02-17 13:21:00,
2013-02-17 06:26:00,15.3,-2.3,23.36,ESE,107,0.0,0.0,45,0.00,,---,0.00,VWS V14.00,2013-02-17 13:26:00,
2013-02-17 06:31:00,15.3,-2.3,23.36,ESE,107,0.0,0.0,45,0.00,,---,0.00,VWS V14.00,2013-02-17 13:31:00,
2013-02-17 06:36:00,15.1,-2.4,23.36,ESE,106,0.0,0.0,45,0.00,,---,0.00,VWS V14.00,2013-02-17 13:36:00,
2013-02-17 06:41:00,15.1,-2.4,23.36,ESE,106,0.0,0.0,45,0.00,,---,0.00,VWS V14.00,2013-02-17 13:41:00,
2013-02-17 06:46:00,15.1,-2.4,23.36,ESE,107,0.0,0.0,45,0.00,,---,0.00,VWS V14.00,2013-02-17 13:46:00,
2013-02-17 06:51:00,14.9,-2.6,23.36,ESE,107,0.0,0.0,45,0.00,,---,0.00,VWS V14.00,2013-02-17 13:51:00,
2013-02-17 06:56:00,14.9,-2.6,23.36,ESE,107,0.0,0.0,45,0.00,,---,0.00,VWS V14.00,2013-02-17 13:56:00,
2013-02-17 07:01:00,14.9,-2.6,23.36,ESE,107,0.0,0.0,45,0.00,,---,0.00,VWS V14.00,2013-02-17 14:01:00,
2013-02-17 07:06:00,14.7,-2.8,23.36,ESE,106,0.0,0.0,45,0.00,,---,0.00,VWS V14.00,2013-02-17 14:06:00,
2013-02-17 07:11:00,14.5,-2.9,23.36,ESE,107,0.0,0.0,45,0.00,,---,0.00,VWS V14.00,2013-02-17 14:11:00,
2013-02-17 07:16:00,14.7,-2.8,23.36,ESE,106,0.0,0.0,45,0.00,,---,0.00,VWS V14.00,2013-02-17 14:16:00,
2013-02-17 07:22:00,14.7,-2.8,23.36,ESE,106,0.0,0.0,45,0.00,,---,0.00,VWS V14.00,2013-02-17 14:22:00,
2013-02-17 07:27:00,14.7,-2.8,23.36,ESE,107,0.0,0.0,45,0.00,,---,0.00,VWS V14.00,2013-02-17 14:27:00,
2013-02-17 07:32:00,14.7,-2.8,23.36,ESE,106,0.0,0.0,45,0.00,,---,0.00,VWS V14.00,2013-02-17 14:32:00,
2013-02-17 07:37:00,14.7,-2.8,23.36,ESE,107,0.0,0.0,45,0.00,,---,0.00,VWS V14.00,2013-02-17 14:37:00,
2013-02-17 07:42:00,14.9,-2.6,23.36,ESE,107,0.0,0.0,45,0.00,,---,0.00,VWS V14.00,2013-02-17 14:42:00,
2013-02-17 07:47:00,15.1,-2.4,23.36,ESE,107,0.0,0.0,45,0.00,,---,0.00,VWS V14.00,2013-02-17 14:47:00,
2013-02-17 07:52:00,15.3,-2.3,23.36,ESE,107,0.0,0.0,45,0.00,,---,0.00,VWS V14.00,2013-02-17 14:52:00,
2013-02-17 07:57:00,15.8,-1.8,23.36,ESE,107,0.0,0.0,45,0.00,,---,0.00,VWS V14.00,2013-02-17 14:57:00,
2013-02-17 08:02:00,16.2,-1.4,23.36,ESE,107,0.0,0.0,45,0.00,,---,0.00,VWS V14.00,2013-02-17 15:02:00,
2013-02-17 08:07:00,16.7,-0.9,23.36,ESE,106,0.0,0.0,45,0.00,,---,0.00,VWS V14.00,2013-02-17 15:07:00,
2013-02-17 08:12:00,17.2,-0.4,23.36,ESE,106,0.0,0.0,45,0.00,,---,0.00,VWS V14.00,2013-02-17 15:12:00,
2013-02-17 08:17:00,18.0,0.2,23.36,ESE,106,0.0,0.0,45,0.00,,---,0.00,VWS V14.00,2013-02-17 15:17:00,
2013-02-17 08:23:00,18.7,0.9,23.36,ESE,107,0.0,0.0,45,0.00,,---,0.00,VWS V14.00,2013-02-17 15:23:00,
2013-02-17 08:28:00,19.6,1.7,23.36,ESE,107,0.0,0.0,45,0.00,,---,0.00,VWS V14.00,2013-02-17 15:28:00,
2013-02-17 08:33:00,20.5,2.5,23.36,ESE,106,0.0,0.0,45,0.00,,---,0.00,VWS V14.00,2013-02-17 15:33:00,
2013-02-17 08:38:00,21.4,2.9,23.36,ESE,106,0.0,0.0,44,0.00,,---,0.00,VWS V14.00,2013-02-17 15:38:00,
2013-02-17 08:43:00,22.5,3.9,23.36,ESE,107,0.0,0.0,44,0.00,,---,0.00,VWS V14.00,2013-02-17 15:43:00,
2013-02-17 08:48:00,23.5,4.8,23.36,ESE,107,0.0,0.0,44,0.00,,---,0.00,VWS V14.00,2013-02-17 15:48:00,
2013-02-17 08:53:00,24.6,5.8,23.36,ESE,106,0.0,0.0,44,0.00,,---,0.00,VWS V14.00,2013-02-17 15:53:00,
2013-02-17 08:58:00,26.6,6.6,23.36,WSW,251,3.6,4.0,42,0.00,,---,0.00,VWS V14.00,2013-02-17 15:58:00,
2013-02-17 09:03:00,29.5,8.7,23.36,WSW,252,4.0,8.1,41,0.00,,---,0.00,VWS V14.00,2013-02-17 16:03:00,
2013-02-17 09:08:00,32.0,11.0,23.36,SSW,207,2.7,3.6,41,0.00,,---,0.00,VWS V14.00,2013-02-17 16:08:00,
2013-02-17 09:13:00,33.4,12.3,23.36,West,270,3.6,3.6,41,0.00,,---,0.00,VWS V14.00,2013-02-17 16:13:00,
2013-02-17 09:18:00,34.9,13.0,23.36,SW,227,3.1,3.1,40,0.00,,---,0.00,VWS V14.00,2013-02-17 16:18:00,
2013-02-17 09:23:00,35.8,13.8,23.36,WSW,256,3.6,6.3,40,0.00,,---,0.00,VWS V14.00,2013-02-17 16:23:00,
2013-02-17 09:28:00,36.9,14.8,23.36,WSW,246,6.3,6.3,40,0.00,,---,0.00,VWS V14.00,2013-02-17 16:28:00,
2013-02-17 09:33:00,37.6,14.9,23.36,South,185,5.4,5.4,39,0.00,,---,0.00,VWS V14.00,2013-02-17 16:33:00,
2013-02-17 09:38:00,38.5,15.7,23.36,WSW,238,2.7,2.7,39,0.00,,---,0.00,VWS V14.00,2013-02-17 16:38:00,
2013-02-17 09:44:00,39.2,16.3,23.36,SW,229,0.0,0.0,39,0.00,,---,0.00,VWS V14.00,2013-02-17 16:44:00,
2013-02-17 09:49:00,40.3,17.3,23.36,SW,226,7.2,7.2,39,0.00,,---,0.00,VWS V14.00,2013-02-17 16:49:00,
2013-02-17 09:54:00,41.2,18.1,23.36,WSW,254,3.1,4.0,39,0.00,,---,0.00,VWS V14.00,2013-02-17 16:54:00,
2013-02-17 09:59:00,42.1,18.9,23.36,SW,225,4.9,4.9,39,0.00,,---,0.00,VWS V14.00,2013-02-17 16:59:00,
2013-02-17 10:04:00,43.0,19.1,23.36,SW,225,4.9,4.9,38,0.00,,---,0.00,VWS V14.00,2013-02-17 17:04:00,
2013-02-17 10:09:00,43.7,19.8,23.36,SW,225,4.9,4.9,38,0.00,,---,0.00,VWS V14.00,2013-02-17 17:09:00,
2013-02-17 10:14:00,44.6,20.6,23.36,NW,314,5.8,5.8,38,0.00,,---,0.00,VWS V14.00,2013-02-17 17:14:00,
2013-02-17 10:19:00,45.7,21.5,23.36,SW,226,3.6,3.6,38,0.00,,---,0.00,VWS V14.00,2013-02-17 17:19:00,
2013-02-17 10:24:00,46.8,21.9,23.36,SW,231,3.6,3.6,37,0.00,,---,0.00,VWS V14.00,2013-02-17 17:24:00,
2013-02-17 10:29:00,47.5,22.5,23.36,SW,234,3.6,3.6,37,0.00,,---,0.00,VWS V14.00,2013-02-17 17:29:00,
2013-02-17 10:34:00,48.6,23.5,23.36,SW,234,3.6,3.6,37,0.00,,---,0.00,VWS V14.00,2013-02-17 17:34:00,
2013-02-17 10:39:00,48.7,23.6,23.36,SW,236,5.8,9.6,37,0.00,,---,0.00,VWS V14.00,2013-02-17 17:39:00,
2013-02-17 10:44:00,48.9,23.8,23.33,West,259,3.6,4.9,37,0.00,,---,0.00,VWS V14.00,2013-02-17 17:44:00,
2013-02-17 10:49:00,49.1,24.0,23.33,SW,228,4.9,5.8,37,0.00,,---,0.00,VWS V14.00,2013-02-17 17:49:00,
2013-02-17 10:54:00,49.3,24.1,23.33,West,260,8.7,10.1,37,0.00,,---,0.00,VWS V14.00,2013-02-17 17:54:00,
2013-02-17 11:00:00,49.6,24.5,23.33,WSW,253,4.9,12.8,37,0.00,,---,0.00,VWS V14.00,2013-02-17 18:00:00,
2013-02-17 11:05:00,50.4,25.1,23.33,WSW,253,3.1,5.4,37,0.00,,---,0.00,VWS V14.00,2013-02-17 18:05:00,
2013-02-17 11:10:00,51.4,26.0,23.33,WNW,296,4.0,12.8,37,0.00,,---,0.00,VWS V14.00,2013-02-17 18:10:00,
2013-02-17 11:15:00,51.6,26.2,23.33,SSW,209,3.1,5.4,37,0.00,,---,0.00,VWS V14.00,2013-02-17 18:15:00,
2013-02-17 11:20:00,52.0,25.9,23.33,SW,215,0.0,8.1,36,0.00,,---,0.00,VWS V14.00,2013-02-17 18:20:00,
2013-02-17 11:25:00,52.3,26.2,23.33,West,271,3.6,8.3,36,0.00,,---,0.00,VWS V14.00,2013-02-17 18:25:00,
2013-02-17 11:30:00,52.9,26.7,23.33,SSE,157,5.8,5.8,36,0.00,,---,0.00,VWS V14.00,2013-02-17 18:30:00,
2013-02-17 11:35:00,53.2,27.0,23.33,South,186,5.4,8.1,36,0.00,,---,0.00,VWS V14.00,2013-02-17 18:35:00,
2013-02-17 11:40:00,53.6,27.3,23.33,WSW,250,4.9,6.3,36,0.00,,---,0.00,VWS V14.00,2013-02-17 18:40:00,
2013-02-17 11:45:00,54.0,27.6,23.33,West,265,5.8,5.8,36,0.00,,---,0.00,VWS V14.00,2013-02-17 18:45:00,
2013-02-17 11:50:00,53.8,27.5,23.33,SW,225,7.2,7.6,36,0.00,,---,0.00,VWS V14.00,2013-02-17 18:50:00,
2013-02-17 11:55:00,54.1,27.8,23.33,West,273,6.3,6.3,36,0.00,,---,0.00,VWS V14.00,2013-02-17 18:55:00,
2013-02-17 12:00:00,54.7,28.3,23.33,SW,229,5.4,7.2,36,0.00,,---,0.00,VWS V14.00,2013-02-17 19:00:00,
2013-02-17 12:05:00,55.0,28.6,23.33,South,181,4.0,5.8,36,0.00,,---,0.00,VWS V14.00,2013-02-17 19:05:00,
2013-02-17 12:10:00,55.0,28.6,23.33,South,186,2.7,8.3,36,0.00,,---,0.00,VWS V14.00,2013-02-17 19:10:00,
2013-02-17 12:15:00,54.3,28.0,23.33,WNW,286,10.5,10.5,36,0.00,,---,0.00,VWS V14.00,2013-02-17 19:15:00,
2013-02-17 12:20:00,54.0,27.6,23.33,WSW,245,5.4,7.6,36,0.00,,---,0.00,VWS V14.00,2013-02-17 19:20:00,
2013-02-17 12:26:00,53.2,27.0,23.33,SW,224,8.7,12.3,36,0.00,,---,0.00,VWS V14.00,2013-02-17 19:26:00,
2013-02-17 12:31:00,52.5,26.4,23.33,NW,306,5.8,8.1,36,0.00,,---,0.00,VWS V14.00,2013-02-17 19:31:00,
2013-02-17 12:36:00,52.7,26.5,23.33,WNW,292,11.0,11.0,36,0.00,,---,0.00,VWS V14.00,2013-02-17 19:36:00,
2013-02-17 12:41:00,53.1,26.8,23.30,SW,233,2.7,4.5,36,0.00,,---,0.00,VWS V14.00,2013-02-17 19:41:00,
2013-02-17 12:46:00,53.8,27.5,23.30,SSW,197,4.9,5.4,36,0.00,,---,0.00,VWS V14.00,2013-02-17 19:46:00,
2013-02-17 12:51:00,54.1,27.8,23.30,SW,226,4.0,5.4,36,0.00,,---,0.00,VWS V14.00,2013-02-17 19:51:00,
2013-02-17 12:56:00,54.3,28.0,23.30,WNW,298,8.7,8.7,36,0.00,,---,0.00,VWS V14.00,2013-02-17 19:56:00,
2013-02-17 13:01:00,54.5,28.1,23.30,SW,236,8.3,8.3,36,0.00,,---,0.00,VWS V14.00,2013-02-17 20:01:00,
2013-02-17 13:06:00,54.3,28.0,23.30,West,269,6.3,7.6,36,0.00,,---,0.00,VWS V14.00,2013-02-17 20:06:00,
2013-02-17 13:11:00,54.5,28.1,23.30,SSW,198,0.0,4.0,36,0.00,,---,0.00,VWS V14.00,2013-02-17 20:11:00,
2013-02-17 13:16:00,54.9,28.4,23.30,SW,231,7.6,7.6,36,0.00,,---,0.00,VWS V14.00,2013-02-17 20:16:00,
2013-02-17 13:21:00,54.5,28.1,23.30,SW,217,3.1,8.3,36,0.00,,---,0.00,VWS V14.00,2013-02-17 20:21:00,
2013-02-17 13:26:00,54.1,27.8,23.30,South,190,5.4,7.6,36,0.00,,---,0.00,VWS V14.00,2013-02-17 20:26:00,
2013-02-17 13:31:00,53.2,27.0,23.30,WSW,240,5.4,9.2,36,0.00,,---,0.00,VWS V14.00,2013-02-17 20:31:00,
2013-02-17 13:36:00,52.2,26.0,23.30,NNW,336,8.7,8.7,36,0.00,,---,0.00,VWS V14.00,2013-02-17 20:36:00,
2013-02-17 13:42:00,51.8,25.7,23.30,WNW,290,6.3,8.3,36,0.00,,---,0.00,VWS V14.00,2013-02-17 20:42:00,
2013-02-17 13:47:00,51.3,25.9,23.30,West,268,14.5,14.5,37,0.00,,---,0.00,VWS V14.00,2013-02-17 20:47:00,
2013-02-17 13:52:00,50.2,24.9,23.30,WSW,238,9.2,10.5,37,0.00,,---,0.00,VWS V14.00,2013-02-17 20:52:00,
2013-02-17 13:57:00,49.6,24.5,23.30,SSW,192,5.4,5.4,37,0.00,,---,0.00,VWS V14.00,2013-02-17 20:57:00,
2013-02-17 14:02:00,49.5,24.3,23.30,WSW,238,4.9,6.3,37,0.00,,---,0.00,VWS V14.00,2013-02-17 21:02:00,
2013-02-17 14:07:00,49.6,24.5,23.30,SSW,201,5.8,10.1,37,0.00,,---,0.00,VWS V14.00,2013-02-17 21:07:00,
2013-02-17 14:12:00,48.9,23.8,23.27,South,181,6.3,8.1,37,0.00,,---,0.00,VWS V14.00,2013-02-17 21:12:00,
2013-02-17 14:17:00,48.7,23.6,23.27,WSW,241,7.6,7.6,37,0.00,,---,0.00,VWS V14.00,2013-02-17 21:17:00,
2013-02-17 14:22:00,48.6,23.5,23.27,South,187,4.0,4.0,37,0.00,,---,0.00,VWS V14.00,2013-02-17 21:22:00,
2013-02-17 14:27:00,48.4,23.3,23.27,SSE,147,8.3,8.3,37,0.00,,---,0.00,VWS V14.00,2013-02-17 21:27:00,
2013-02-17 14:32:00,48.2,23.2,23.27,NNW,330,5.4,5.4,37,0.00,,---,0.00,VWS V14.00,2013-02-17 21:32:00,
2013-02-17 14:37:00,48.0,23.0,23.27,West,277,3.6,10.5,37,0.00,,---,0.00,VWS V14.00,2013-02-17 21:37:00,
2013-02-17 14:42:00,48.0,23.0,23.27,West,279,6.7,12.3,37,0.00,,---,0.00,VWS V14.00,2013-02-17 21:42:00,
2013-02-17 14:47:00,48.0,23.0,23.27,SW,229,8.1,10.1,37,0.00,,---,0.00,VWS V14.00,2013-02-17 21:47:00,
2013-02-17 14:52:00,48.0,23.0,23.27,WSW,241,9.2,12.8,37,0.00,,---,0.00,VWS V14.00,2013-02-17 21:52:00,
2013-02-17 14:57:00,48.0,23.0,23.27,NW,310,8.1,13.2,37,0.00,,---,0.00,VWS V14.00,2013-02-17 21:57:00,
2013-02-17 15:02:00,48.0,23.0,23.27,WSW,244,5.4,15.0,37,0.00,,---,0.00,VWS V14.00,2013-02-17 22:02:00,
2013-02-17 15:08:00,48.2,23.2,23.27,NW,312,8.3,8.3,37,0.00,,---,0.00,VWS V14.00,2013-02-17 22:08:00,
2013-02-17 15:13:00,48.2,23.2,23.27,SW,223,4.0,8.1,37,0.00,,---,0.00,VWS V14.00,2013-02-17 22:13:00,
2013-02-17 15:18:00,48.0,23.0,23.27,SSW,196,5.8,9.6,37,0.00,,---,0.00,VWS V14.00,2013-02-17 22:18:00,
2013-02-17 15:23:00,48.2,23.2,23.27,WNW,283,5.8,5.8,37,0.00,,---,0.00,VWS V14.00,2013-02-17 22:23:00,
2013-02-17 15:28:00,48.4,23.3,23.27,SW,225,5.4,6.3,37,0.00,,---,0.00,VWS V14.00,2013-02-17 22:28:00,
2013-02-17 15:33:00,48.2,23.2,23.27,SW,217,5.8,11.0,37,0.00,,---,0.00,VWS V14.00,2013-02-17 22:33:00,
2013-02-17 15:38:00,48.0,23.0,23.27,NW,307,7.6,7.6,37,0.00,,---,0.00,VWS V14.00,2013-02-17 22:38:00,
2013-02-17 15:43:00,48.0,23.0,23.27,WSW,244,5.8,7.2,37,0.00,,---,0.00,VWS V14.00,2013-02-17 22:43:00,
2013-02-17 15:48:00,48.0,23.0,23.27,West,272,8.7,8.7,37,0.00,,---,0.00,VWS V14.00,2013-02-17 22:48:00,
2013-02-17 15:53:00,48.2,23.2,23.27,SW,220,5.4,10.1,37,0.00,,---,0.00,VWS V14.00,2013-02-17 22:53:00,
2013-02-17 15:58:00,48.4,23.3,23.27,WNW,302,8.1,8.1,37,0.00,,---,0.00,VWS V14.00,2013-02-17 22:58:00,
2013-02-17 16:03:00,48.6,23.5,23.27,West,270,5.8,7.2,37,0.00,,---,0.00,VWS V14.00,2013-02-17 23:03:00,
2013-02-17 16:09:00,48.6,23.5,23.27,WSW,241,5.8,5.8,37,0.00,,---,0.00,VWS V14.00,2013-02-17 23:09:00,
2013-02-17 16:14:00,48.6,23.5,23.27,WNW,290,3.6,7.6,37,0.00,,---,0.00,VWS V14.00,2013-02-17 23:14:00,
2013-02-17 16:19:00,48.9,23.8,23.27,SW,220,10.5,10.5,37,0.00,,---,0.00,VWS V14.00,2013-02-17 23:19:00,
2013-02-17 16:24:00,49.3,24.1,23.27,SW,233,5.4,5.4,37,0.00,,---,0.00,VWS V14.00,2013-02-17 23:24:00,
2013-02-17 16:29:00,49.6,24.5,23.27,SSW,203,5.8,7.2,37,0.00,,---,0.00,VWS V14.00,2013-02-17 23:29:00,
2013-02-17 16:34:00,50.0,24.8,23.27,WSW,258,4.0,5.4,37,0.00,,---,0.00,VWS V14.00,2013-02-17 23:34:00,
2013-02-17 16:39:00,50.5,25.2,23.27,WSW,239,5.4,5.8,37,0.00,,---,0.00,VWS V14.00,2013-02-17 23:39:00,
2013-02-17 16:44:00,50.9,25.6,23.27,South,173,7.6,7.6,37,0.00,,---,0.00,VWS V14.00,2013-02-17 23:44:00,
2013-02-17 16:49:00,50.7,25.4,23.27,SW,223,4.0,6.3,37,0.00,,---,0.00,VWS V14.00,2013-02-17 23:49:00,
2013-02-17 16:54:00,50.5,25.2,23.27,WSW,248,2.7,2.7,37,0.00,,---,0.00,VWS V14.00,2013-02-17 23:54:00,
2013-02-17 16:59:00,50.4,25.1,23.27,SW,232,3.1,3.1,37,0.00,,---,0.00,VWS V14.00,2013-02-17 23:59:00,
2013-02-17 17:04:00,50.4,25.1,23.27,WSW,247,4.0,4.0,37,0.00,,---,0.00,VWS V14.00,2013-02-18 00:04:00,
2013-02-17 17:09:00,49.8,24.6,23.27,WSW,242,5.4,5.4,37,0.00,,---,0.00,VWS V14.00,2013-02-18 00:09:00,
2013-02-17 17:14:00,49.3,24.1,23.27,WSW,239,4.0,5.4,37,0.00,,---,0.00,VWS V14.00,2013-02-18 00:14:00,
2013-02-17 17:19:00,48.7,23.6,23.27,WSW,240,6.3,11.0,37,0.00,,---,0.00,VWS V14.00,2013-02-18 00:19:00,
2013-02-17 17:24:00,47.7,22.7,23.27,SW,236,3.6,4.0,37,0.00,,---,0.00,VWS V14.00,2013-02-18 00:24:00,
2013-02-17 17:29:00,46.9,22.0,23.27,SW,234,5.8,5.8,37,0.00,,---,0.00,VWS V14.00,2013-02-18 00:29:00,
2013-02-17 17:35:00,46.0,21.9,23.27,SW,221,3.1,3.6,38,0.00,,---,0.00,VWS V14.00,2013-02-18 00:35:00,
2013-02-17 17:40:00,45.3,21.2,23.27,SW,234,2.7,8.1,38,0.00,,---,0.00,VWS V14.00,2013-02-18 00:40:00,
2013-02-17 17:45:00,44.4,20.4,23.27,South,183,4.0,4.0,38,0.00,,---,0.00,VWS V14.00,2013-02-18 00:45:00,
2013-02-17 17:50:00,43.7,19.8,23.27,SSW,205,3.6,8.1,38,0.00,,---,0.00,VWS V14.00,2013-02-18 00:50:00,
2013-02-17 17:55:00,43.2,19.3,23.27,SW,235,2.7,2.7,38,0.00,,---,0.00,VWS V14.00,2013-02-18 00:55:00,
2013-02-17 18:00:00,42.4,19.2,23.30,West,262,5.4,8.3,39,0.00,,---,0.00,VWS V14.00,2013-02-18 01:00:00,
2013-02-17 18:05:00,42.1,18.9,23.30,SW,223,5.8,5.8,39,0.00,,---,0.00,VWS V14.00,2013-02-18 01:05:00,
2013-02-17 18:10:00,41.5,18.4,23.30,SW,227,7.6,7.6,39,0.00,,---,0.00,VWS V14.00,2013-02-18 01:10:00,
2013-02-17 18:15:00,41.2,18.1,23.27,SW,228,4.0,8.1,39,0.00,,---,0.00,VWS V14.00,2013-02-18 01:15:00,
2013-02-17 18:20:00,40.6,17.6,23.27,West,262,10.1,10.1,39,0.00,,---,0.00,VWS V14.00,2013-02-18 01:20:00,
2013-02-17 18:25:00,40.3,17.3,23.27,SW,232,3.1,3.6,39,0.00,,---,0.00,VWS V14.00,2013-02-18 01:25:00,
2013-02-17 18:30:00,39.9,17.0,23.30,West,263,2.7,2.7,39,0.00,,---,0.00,VWS V14.00,2013-02-18 01:30:00,
2013-02-17 18:35:00,39.4,16.5,23.30,WSW,241,7.6,8.7,39,0.00,,---,0.00,VWS V14.00,2013-02-18 01:35:00,
2013-02-17 18:40:00,39.2,16.3,23.30,WSW,244,3.1,3.6,39,0.00,,---,0.00,VWS V14.00,2013-02-18 01:40:00,
2013-02-17 18:45:00,38.8,16.0,23.30,SW,225,4.0,4.0,39,0.00,,---,0.00,VWS V14.00,2013-02-18 01:45:00,
2013-02-17 18:50:00,38.5,15.7,23.30,SW,233,3.6,3.6,39,0.00,,---,0.00,VWS V14.00,2013-02-18 01:50:00,
2013-02-17 18:55:00,38.3,15.5,23.30,SW,230,3.6,3.6,39,0.00,,---,0.00,VWS V14.00,2013-02-18 01:55:00,
2013-02-17 19:01:00,37.9,15.2,23.30,SSW,194,3.6,5.8,39,0.00,,---,0.00,VWS V14.00,2013-02-18 02:01:00,
2013-02-17 19:06:00,37.6,14.9,23.30,SW,225,4.0,4.0,39,0.00,,---,0.00,VWS V14.00,2013-02-18 02:06:00,
2013-02-17 19:11:00,37.4,14.7,23.30,SW,233,4.0,5.8,39,0.00,,---,0.00,VWS V14.00,2013-02-18 02:11:00,
2013-02-17 19:16:00,37.4,14.7,23.30,WSW,239,2.7,3.1,39,0.00,,---,0.00,VWS V14.00,2013-02-18 02:16:00,
2013-02-17 19:21:00,37.0,15.0,23.30,WSW,257,3.1,6.3,40,0.00,,---,0.00,VWS V14.00,2013-02-18 02:21:00,
2013-02-17 19:26:00,37.0,15.0,23.30,WSW,238,8.1,9.6,40,0.00,,---,0.00,VWS V14.00,2013-02-18 02:26:00,
2013-02-17 19:31:00,36.9,14.8,23.30,WSW,258,4.0,4.0,40,0.00,,---,0.00,VWS V14.00,2013-02-18 02:31:00,
2013-02-17 19:36:00,36.9,14.8,23.30,SW,229,3.6,5.4,40,0.00,,---,0.00,VWS V14.00,2013-02-18 02:36:00,
2013-02-17 19:41:00,36.7,14.6,23.30,West,261,3.6,5.8,40,0.00,,---,0.00,VWS V14.00,2013-02-18 02:41:00,
2013-02-17 19:46:00,36.5,14.5,23.30,WSW,248,4.0,6.3,40,0.00,,---,0.00,VWS V14.00,2013-02-18 02:46:00,
2013-02-17 19:51:00,36.3,14.3,23.30,SW,227,2.7,2.7,40,0.00,,---,0.00,VWS V14.00,2013-02-18 02:51:00,
2013-02-17 19:56:00,36.1,14.2,23.27,SW,225,4.0,5.8,40,0.00,,---,0.00,VWS V14.00,2013-02-18 02:56:00,
2013-02-17 20:01:00,36.0,14.0,23.27,SW,227,3.6,3.6,40,0.00,,---,0.00,VWS V14.00,2013-02-18 03:01:00,
2013-02-17 20:06:00,35.8,13.8,23.27,WSW,249,5.4,5.4,40,0.00,,---,0.00,VWS V14.00,2013-02-18 03:06:00,
2013-02-17 20:11:00,35.6,13.7,23.30,WSW,250,3.6,3.6,40,0.00,,---,0.00,VWS V14.00,2013-02-18 03:11:00,
2013-02-17 20:16:00,35.4,13.5,23.30,WSW,240,4.0,5.4,40,0.00,,---,0.00,VWS V14.00,2013-02-18 03:16:00,
2013-02-17 20:22:00,35.2,13.4,23.30,WNW,286,4.9,4.9,40,0.00,,---,0.00,VWS V14.00,2013-02-18 03:22:00,
2013-02-17 20:27:00,34.9,13.0,23.30,West,274,3.1,3.6,40,0.00,,---,0.00,VWS V14.00,2013-02-18 03:27:00,
2013-02-17 20:32:00,34.7,12.9,23.30,West,267,2.2,4.0,40,0.00,,---,0.00,VWS V14.00,2013-02-18 03:32:00,
2013-02-17 20:37:00,34.3,12.5,23.30,West,262,0.0,3.6,40,0.00,,---,0.00,VWS V14.00,2013-02-18 03:37:00,
2013-02-17 20:42:00,34.0,12.2,23.30,West,276,3.1,3.1,40,0.00,,---,0.00,VWS V14.00,2013-02-18 03:42:00,
2013-02-17 20:47:00,33.8,12.1,23.30,SW,232,2.2,2.7,40,0.00,,---,0.00,VWS V14.00,2013-02-18 03:47:00,
2013-02-17 20:52:00,33.8,12.1,23.30,WSW,241,6.3,6.3,40,0.00,,---,0.00,VWS V14.00,2013-02-18 03:52:00,
2013-02-17 20:57:00,33.6,12.4,23.33,West,272,4.0,4.0,41,0.00,,---,0.00,VWS V14.00,2013-02-18 03:57:00,
2013-02-17 21:02:00,33.3,12.1,23.33,WSW,241,2.7,2.7,41,0.00,,---,0.00,VWS V14.00,2013-02-18 04:02:00,
2013-02-17 21:07:00,33.3,12.1,23.33,SW,221,3.6,3.6,41,0.00,,---,0.00,VWS V14.00,2013-02-18 04:07:00,
2013-02-17 21:13:00,33.1,12.0,23.33,SW,227,0.0,0.0,41,0.00,,---,0.00,VWS V14.00,2013-02-18 04:13:00,
2013-02-17 21:18:00,32.9,11.8,23.33,SW,231,2.2,4.0,41,0.00,,---,0.00,VWS V14.00,2013-02-18 04:18:00,
2013-02-17 21:23:00,32.9,11.8,23.33,SW,236,3.6,4.0,41,0.00,,---,0.00,VWS V14.00,2013-02-18 04:23:00,
2013-02-17 21:28:00,32.9,11.8,23.33,SW,235,4.0,4.9,41,0.00,,---,0.00,VWS V14.00,2013-02-18 04:28:00,
2013-02-17 21:33:00,32.7,11.6,23.33,SW,225,2.7,2.7,41,0.00,,---,0.00,VWS V14.00,2013-02-18 04:33:00,
2013-02-17 21:38:00,32.5,11.5,23.33,WSW,255,0.0,2.2,41,0.00,,---,0.00,VWS V14.00,2013-02-18 04:38:00,
2013-02-17 21:43:00,32.4,11.3,23.33,WSW,254,2.7,2.7,41,0.00,,---,0.00,VWS V14.00,2013-02-18 04:43:00,
2013-02-17 21:48:00,32.0,11.0,23.33,West,271,0.0,2.2,41,0.00,,---,0.00,VWS V14.00,2013-02-18 04:48:00,
2013-02-17 21:53:00,31.8,10.8,23.33,West,277,0.0,0.0,41,0.00,,---,0.00,VWS V14.00,2013-02-18 04:53:00,
2013-02-17 21:58:00,31.1,10.2,23.33,West,277,0.0,0.0,41,0.00,,---,0.00,VWS V14.00,2013-02-18 04:58:00,
2013-02-17 22:00:00,30.9,10.0,23.33,West,277,0.0,0.0,41,0.00,,---,0.00,VWS V14.00,2013-02-18 05:00:00,
2013-02-17 22:01:00,30.7,9.8,23.33,West,277,0.0,0.0,41,0.00,,---,0.00,VWS V14.00,2013-02-18 05:01:00,
2013-02-17 22:03:00,30.4,9.5,23.33,West,277,0.0,0.0,41,0.00,,---,0.00,VWS V14.00,2013-02-18 05:03:00,
2013-02-17 22:08:00,29.8,9.0,23.33,West,277,0.0,0.0,41,0.00,,---,0.00,VWS V14.00,2013-02-18 05:08:00,
2013-02-17 22:13:00,29.3,8.5,23.36,West,277,0.0,0.0,41,0.00,,---,0.00,VWS V14.00,2013-02-18 05:13:00,
2013-02-17 22:18:00,28.8,8.0,23.36,West,277,0.0,0.0,41,0.00,,---,0.00,VWS V14.00,2013-02-18 05:18:00,
2013-02-17 22:23:00,28.2,7.6,23.36,West,277,0.0,0.0,41,0.00,,---,0.00,VWS V14.00,2013-02-18 05:23:00,
2013-02-17 22:28:00,27.9,7.2,23.36,West,277,0.0,0.0,41,0.00,,---,0.00,VWS V14.00,2013-02-18 05:28:00,
2013-02-17 22:33:00,27.5,6.9,23.36,West,277,0.0,0.0,41,0.00,,---,0.00,VWS V14.00,2013-02-18 05:33:00,
2013-02-17 22:38:00,27.3,6.7,23.36,West,277,0.0,0.0,41,0.00,,---,0.00,VWS V14.00,2013-02-18 05:38:00,
2013-02-17 22:43:00,27.0,6.4,23.36,West,277,0.0,0.0,41,0.00,,---,0.00,VWS V14.00,2013-02-18 05:43:00,
2013-02-17 22:48:00,26.6,6.6,23.36,West,277,0.0,0.0,42,0.00,,---,0.00,VWS V14.00,2013-02-18 05:48:00,
2013-02-17 22:53:00,26.4,6.4,23.36,West,277,0.0,0.0,42,0.00,,---,0.00,VWS V14.00,2013-02-18 05:53:00,
2013-02-17 22:58:00,26.1,6.1,23.36,West,277,0.0,0.0,42,0.00,,---,0.00,VWS V14.00,2013-02-18 05:58:00,
2013-02-17 23:03:00,26.1,6.1,23.36,West,277,0.0,0.0,42,0.00,,---,0.00,VWS V14.00,2013-02-18 06:03:00,
2013-02-17 23:08:00,25.7,5.8,23.36,West,277,0.0,0.0,42,0.00,,---,0.00,VWS V14.00,2013-02-18 06:08:00,
2013-02-17 23:13:00,25.5,5.6,23.36,West,277,0.0,0.0,42,0.00,,---,0.00,VWS V14.00,2013-02-18 06:13:00,
2013-02-17 23:18:00,25.3,5.5,23.36,West,277,0.0,0.0,42,0.00,,---,0.00,VWS V14.00,2013-02-18 06:18:00,
2013-02-17 23:23:00,25.2,5.3,23.36,West,277,0.0,0.0,42,0.00,,---,0.00,VWS V14.00,2013-02-18 06:23:00,
2013-02-17 23:28:00,25.0,5.1,23.36,West,277,0.0,0.0,42,0.00,,---,0.00,VWS V14.00,2013-02-18 06:28:00,
2013-02-17 23:34:00,24.6,4.8,23.36,West,277,0.0,0.0,42,0.00,,---,0.00,VWS V14.00,2013-02-18 06:34:00,
2013-02-17 23:39:00,24.6,4.8,23.36,West,277,0.0,0.0,42,0.00,,---,0.00,VWS V14.00,2013-02-18 06:39:00,
2013-02-17 23:44:00,24.4,4.7,23.36,West,277,0.0,0.0,42,0.00,,---,0.00,VWS V14.00,2013-02-18 06:44:00,
2013-02-17 23:49:00,24.3,4.5,23.36,West,277,0.0,0.0,42,0.00,,---,0.00,VWS V14.00,2013-02-18 06:49:00,
2013-02-17 23:54:00,24.1,4.3,23.36,West,277,0.0,0.0,42,0.00,,---,0.00,VWS V14.00,2013-02-18 06:54:00,
2013-02-17 23:59:00,23.9,4.2,23.36,West,277,0.0,0.0,42,0.00,,---,0.00,VWS V14.00,2013-02-18 06:59:00,